sensor_id;sensor_type;location;lat;lon;timestamp;pressure;altitude;pressure_sealevel;temperature;humidity
61573;BME280;47465;43.094;12.434;2023-01-31T00:01:04;98934.25;;;4.96;94.20
61573;BME280;47465;43.094;12.434;2023-01-31T00:03:30;98918.47;;;4.85;94.27
61573;BME280;47465;43.094;12.434;2023-01-31T00:05:56;98928.09;;;4.98;94.10
61573;BME280;47465;43.094;12.434;2023-01-31T00:08:22;98941.31;;;4.95;94.66
61573;BME280;47465;43.094;12.434;2023-01-31T00:10:48;98936.88;;;4.94;94.99
61573;BME280;47465;43.094;12.434;2023-01-31T00:13:13;98926.34;;;4.88;94.88
61573;BME280;47465;43.094;12.434;2023-01-31T00:15:39;98936.03;;;4.87;95.07
61573;BME280;47465;43.094;12.434;2023-01-31T00:18:07;98943.94;;;4.95;95.21
61573;BME280;47465;43.094;12.434;2023-01-31T00:20:33;98944.81;;;4.97;94.63
61573;BME280;47465;43.094;12.434;2023-01-31T00:22:59;98939.53;;;4.96;94.80
61573;BME280;47465;43.094;12.434;2023-01-31T00:25:25;98936.06;;;4.86;94.74
61573;BME280;47465;43.094;12.434;2023-01-31T00:27:51;98922.88;;;4.80;95.20
61573;BME280;47465;43.094;12.434;2023-01-31T00:30:17;98940.44;;;4.88;95.00
61573;BME280;47465;43.094;12.434;2023-01-31T00:32:43;98929.00;;;4.89;94.90
61573;BME280;47465;43.094;12.434;2023-01-31T00:35:10;98959.72;;;5.04;94.68
61573;BME280;47465;43.094;12.434;2023-01-31T00:37:36;98959.72;;;5.04;94.66
61573;BME280;47465;43.094;12.434;2023-01-31T00:40:02;98957.09;;;4.92;94.96
61573;BME280;47465;43.094;12.434;2023-01-31T00:42:29;98952.72;;;4.88;95.24
61573;BME280;47465;43.094;12.434;2023-01-31T00:44:54;98972.94;;;4.97;95.39
61573;BME280;47465;43.094;12.434;2023-01-31T00:47:20;98950.09;;;4.80;95.17
61573;BME280;47465;43.094;12.434;2023-01-31T00:49:46;98951.84;;;4.89;95.34
61573;BME280;47465;43.094;12.434;2023-01-31T00:52:13;98948.34;;;4.82;95.78
61573;BME280;47465;43.094;12.434;2023-01-31T00:54:39;98935.19;;;4.78;95.76
61573;BME280;47465;43.094;12.434;2023-01-31T00:57:07;98950.09;;;4.82;95.97
61573;BME280;47465;43.094;12.434;2023-01-31T00:59:33;98936.94;;;4.68;97.02
61573;BME280;47465;43.094;12.434;2023-01-31T01:01:59;98970.28;;;4.92;96.65
61573;BME280;47465;43.094;12.434;2023-01-31T01:04:25;98928.16;;;4.75;96.23
61573;BME280;47465;43.094;12.434;2023-01-31T01:06:51;98953.59;;;4.74;98.40
61573;BME280;47465;43.094;12.434;2023-01-31T01:09:21;98944.84;;;4.60;98.96
61573;BME280;47465;43.094;12.434;2023-01-31T01:11:48;98945.72;;;4.65;98.29
61573;BME280;47465;43.094;12.434;2023-01-31T01:14:14;98959.75;;;4.61;98.84
61573;BME280;47465;43.094;12.434;2023-01-31T01:16:40;98929.91;;;4.50;98.42
61573;BME280;47465;43.094;12.434;2023-01-31T01:19:08;98948.38;;;4.51;99.22
61573;BME280;47465;43.094;12.434;2023-01-31T01:21:35;98938.69;;;4.40;99.71
61573;BME280;47465;43.094;12.434;2023-01-31T01:24:02;98936.06;;;4.35;100.00
61573;BME280;47465;43.094;12.434;2023-01-31T01:26:31;98936.03;;;4.23;100.00
61573;BME280;47465;43.094;12.434;2023-01-31T01:28:59;98941.28;;;4.14;100.00
61573;BME280;47465;43.094;12.434;2023-01-31T01:31:26;98944.81;;;4.02;100.00
61573;BME280;47465;43.094;12.434;2023-01-31T01:33:56;98943.03;;;3.96;100.00
61573;BME280;47465;43.094;12.434;2023-01-31T01:36:23;98951.81;;;4.04;100.00
61573;BME280;47465;43.094;12.434;2023-01-31T01:38:51;98964.94;;;3.98;100.00
61573;BME280;47465;43.094;12.434;2023-01-31T01:41:17;98955.28;;;3.89;100.00
61573;BME280;47465;43.094;12.434;2023-01-31T01:43:47;98955.28;;;3.88;100.00
61573;BME280;47465;43.094;12.434;2023-01-31T01:46:16;98955.28;;;3.82;100.00
61573;BME280;47465;43.094;12.434;2023-01-31T01:48:45;98944.69;;;3.66;100.00
61573;BME280;47465;43.094;12.434;2023-01-31T01:51:13;98968.34;;;3.62;100.00
61573;BME280;47465;43.094;12.434;2023-01-31T01:53:43;98947.22;;;3.34;100.00
61573;BME280;47465;43.094;12.434;2023-01-31T01:56:12;98960.34;;;3.36;100.00
61573;BME280;47465;43.094;12.434;2023-01-31T01:58:45;98963.78;;;3.24;100.00
61573;BME280;47465;43.094;12.434;2023-01-31T02:01:12;98942.69;;;3.10;100.00
61573;BME280;47465;43.094;12.434;2023-01-31T02:03:42;98966.41;;;3.19;100.00
61573;BME280;47465;43.094;12.434;2023-01-31T02:06:09;98955.75;;;2.96;100.00
61573;BME280;47465;43.094;12.434;2023-01-31T02:08:37;98985.53;;;3.01;100.00
61573;BME280;47465;43.094;12.434;2023-01-31T02:11:05;98991.75;;;3.08;100.00
61573;BME280;47465;43.094;12.434;2023-01-31T02:13:33;98984.66;;;3.01;100.00
61573;BME280;47465;43.094;12.434;2023-01-31T02:16:01;98969.66;;;2.81;100.00
61573;BME280;47465;43.094;12.434;2023-01-31T02:18:27;98987.16;;;2.81;100.00
61573;BME280;47465;43.094;12.434;2023-01-31T02:21:13;98995.97;;;2.89;100.00
61573;BME280;47465;43.094;12.434;2023-01-31T02:24:17;98993.41;;;2.98;100.00
61573;BME280;47465;43.094;12.434;2023-01-31T02:32:44;98978.53;;;2.97;100.00
61573;BME280;47465;43.094;12.434;2023-01-31T02:35:21;99000.41;;;2.96;100.00
61573;BME280;47465;43.094;12.434;2023-01-31T02:37:56;98998.56;;;2.86;100.00
61573;BME280;47465;43.094;12.434;2023-01-31T02:40:34;98991.59;;;2.90;100.00
61573;BME280;47465;43.094;12.434;2023-01-31T02:43:11;99011.88;;;3.06;100.00
61573;BME280;47465;43.094;12.434;2023-01-31T02:45:42;99004.78;;;2.99;100.00
61573;BME280;47465;43.094;12.434;2023-01-31T02:48:18;98995.16;;;2.96;100.00
61573;BME280;47465;43.094;12.434;2023-01-31T02:50:56;99021.50;;;3.08;100.00
61573;BME280;47465;43.094;12.434;2023-01-31T02:53:28;99003.94;;;3.00;100.00
61573;BME280;47465;43.094;12.434;2023-01-31T02:55:58;98993.44;;;3.00;100.00
61573;BME280;47465;43.094;12.434;2023-01-31T02:59:04;99018.00;;;3.08;100.00
61573;BME280;47465;43.094;12.434;2023-01-31T03:01:32;99002.34;;;3.23;100.00
61573;BME280;47465;43.094;12.434;2023-01-31T03:04:03;98998.97;;;3.50;100.00
61573;BME280;47465;43.094;12.434;2023-01-31T03:09:48;99021.88;;;3.73;100.00
61573;BME280;47465;43.094;12.434;2023-01-31T03:12:32;99007.91;;;3.94;100.00
61573;BME280;47465;43.094;12.434;2023-01-31T03:15:20;99020.31;;;4.32;100.00
61573;BME280;47465;43.094;12.434;2023-01-31T03:17:56;99035.22;;;4.28;100.00
61573;BME280;47465;43.094;12.434;2023-01-31T03:20:29;99018.53;;;4.22;100.00
61573;BME280;47465;43.094;12.434;2023-01-31T03:23:04;99027.31;;;4.27;100.00
61573;BME280;47465;43.094;12.434;2023-01-31T03:25:34;99020.25;;;4.09;100.00
61573;BME280;47465;43.094;12.434;2023-01-31T03:28:05;99021.97;;;4.01;100.00
61573;BME280;47465;43.094;12.434;2023-01-31T03:30:38;99018.41;;;3.82;100.00
61573;BME280;47465;43.094;12.434;2023-01-31T03:33:10;99030.69;;;3.84;100.00
61573;BME280;47465;43.094;12.434;2023-01-31T03:35:40;99023.72;;;3.97;100.00
61573;BME280;47465;43.094;12.434;2023-01-31T03:38:14;99029.03;;;4.17;100.00
61573;BME280;47465;43.094;12.434;2023-01-31T03:40:46;99051.00;;;4.31;100.00
61573;BME280;47465;43.094;12.434;2023-01-31T03:43:17;99047.50;;;4.23;100.00
61573;BME280;47465;43.094;12.434;2023-01-31T03:45:49;99018.44;;;3.96;100.00
61573;BME280;47465;43.094;12.434;2023-01-31T03:48:19;99044.78;;;3.97;100.00
61573;BME280;47465;43.094;12.434;2023-01-31T03:50:50;99043.03;;;3.98;100.00
61573;BME280;47465;43.094;12.434;2023-01-31T03:53:20;99053.56;;;4.04;100.00
61573;BME280;47465;43.094;12.434;2023-01-31T03:55:49;99057.97;;;4.08;99.87
61573;BME280;47465;43.094;12.434;2023-01-31T03:58:19;99041.31;;;4.14;99.19
61573;BME280;47465;43.094;12.434;2023-01-31T04:00:49;99032.53;;;4.10;99.20
61573;BME280;47465;43.094;12.434;2023-01-31T04:03:22;99010.53;;;3.86;98.93
61573;BME280;47465;43.094;12.434;2023-01-31T04:05:51;99028.13;;;4.06;98.46
61573;BME280;47465;43.094;12.434;2023-01-31T04:08:17;99042.22;;;4.17;97.92
61573;BME280;47465;43.094;12.434;2023-01-31T04:10:43;99050.13;;;4.19;97.68
61573;BME280;47465;43.094;12.434;2023-01-31T04:13:09;99061.50;;;4.10;98.50
61573;BME280;47465;43.094;12.434;2023-01-31T04:15:35;99028.00;;;3.75;97.85
61573;BME280;47465;43.094;12.434;2023-01-31T04:18:02;99041.97;;;3.59;97.84
61573;BME280;47465;43.094;12.434;2023-01-31T04:20:28;99041.75;;;3.25;99.26
61573;BME280;47465;43.094;12.434;2023-01-31T04:22:54;99026.72;;;2.99;99.87
61573;BME280;47465;43.094;12.434;2023-01-31T04:25:20;99030.91;;;2.79;100.00
61573;BME280;47465;43.094;12.434;2023-01-31T04:27:46;99055.31;;;2.65;100.00
61573;BME280;47465;43.094;12.434;2023-01-31T04:30:12;99062.19;;;2.53;100.00
61573;BME280;47465;43.094;12.434;2023-01-31T04:32:38;99037.41;;;2.28;100.00
61573;BME280;47465;43.094;12.434;2023-01-31T04:35:06;99046.41;;;2.51;100.00
61573;BME280;47465;43.094;12.434;2023-01-31T04:37:32;99027.56;;;2.98;100.00
61573;BME280;47465;43.094;12.434;2023-01-31T04:39:58;99056.03;;;3.67;100.00
61573;BME280;47465;43.094;12.434;2023-01-31T04:42:24;99047.25;;;3.60;100.00
61573;BME280;47465;43.094;12.434;2023-01-31T04:44:50;99035.63;;;3.21;98.55
61573;BME280;47465;43.094;12.434;2023-01-31T04:47:16;99063.47;;;2.98;99.28
61573;BME280;47465;43.094;12.434;2023-01-31T04:49:41;99071.09;;;2.67;100.00
61573;BME280;47465;43.094;12.434;2023-01-31T04:52:10;99084.78;;;2.38;100.00
61573;BME280;47465;43.094;12.434;2023-01-31T04:54:36;99064.38;;;2.11;100.00
61573;BME280;47465;43.094;12.434;2023-01-31T04:57:02;99060.56;;;1.84;100.00
61573;BME280;47465;43.094;12.434;2023-01-31T04:59:28;99061.22;;;1.68;100.00
61573;BME280;47465;43.094;12.434;2023-01-31T05:01:54;99059.22;;;1.52;100.00
61573;BME280;47465;43.094;12.434;2023-01-31T05:04:20;99051.16;;;1.36;100.00
61573;BME280;47465;43.094;12.434;2023-01-31T05:06:46;99063.28;;;1.30;100.00
61573;BME280;47465;43.094;12.434;2023-01-31T05:09:14;99047.47;;;1.23;100.00
61573;BME280;47465;43.094;12.434;2023-01-31T05:11:40;99047.41;;;1.17;100.00
61573;BME280;47465;43.094;12.434;2023-01-31T05:14:05;99054.47;;;1.21;100.00
61573;BME280;47465;43.094;12.434;2023-01-31T05:16:31;99058.81;;;1.21;100.00
61573;BME280;47465;43.094;12.434;2023-01-31T05:18:57;99059.56;;;1.14;100.00
61573;BME280;47465;43.094;12.434;2023-01-31T05:21:23;99055.91;;;1.04;100.00
61573;BME280;47465;43.094;12.434;2023-01-31T05:23:49;99080.50;;;1.11;100.00
61573;BME280;47465;43.094;12.434;2023-01-31T05:26:16;99047.94;;;0.93;100.00
61573;BME280;47465;43.094;12.434;2023-01-31T05:28:42;99072.53;;;1.06;100.00
61573;BME280;47465;43.094;12.434;2023-01-31T05:31:11;99060.03;;;0.88;100.00
61573;BME280;47465;43.094;12.434;2023-01-31T05:33:38;99076.63;;;0.87;100.00
61573;BME280;47465;43.094;12.434;2023-01-31T05:36:04;99081.06;;;0.91;100.00
61573;BME280;47465;43.094;12.434;2023-01-31T05:38:30;99079.34;;;0.93;100.00
61573;BME280;47465;43.094;12.434;2023-01-31T05:40:56;99096.91;;;1.00;100.00
61573;BME280;47465;43.094;12.434;2023-01-31T05:43:23;99056.41;;;0.80;100.00
61573;BME280;47465;43.094;12.434;2023-01-31T05:45:49;99086.53;;;1.07;100.00
61573;BME280;47465;43.094;12.434;2023-01-31T05:48:15;99072.06;;;1.30;100.00
61573;BME280;47465;43.094;12.434;2023-01-31T05:50:41;99090.78;;;1.58;100.00
61573;BME280;47465;43.094;12.434;2023-01-31T05:53:07;99073.19;;;1.49;100.00
61573;BME280;47465;43.094;12.434;2023-01-31T05:55:33;99088.28;;;1.66;100.00
61573;BME280;47465;43.094;12.434;2023-01-31T05:57:59;99086.75;;;1.83;100.00
61573;BME280;47465;43.094;12.434;2023-01-31T06:00:27;99077.88;;;1.73;100.00
61573;BME280;47465;43.094;12.434;2023-01-31T06:02:56;99116.56;;;1.90;100.00
61573;BME280;47465;43.094;12.434;2023-01-31T06:05:22;99116.66;;;1.96;100.00
61573;BME280;47465;43.094;12.434;2023-01-31T06:07:47;99117.34;;;1.82;100.00
61573;BME280;47465;43.094;12.434;2023-01-31T06:10:13;99094.41;;;1.69;100.00
61573;BME280;47465;43.094;12.434;2023-01-31T06:12:40;99120.75;;;1.77;100.00
61573;BME280;47465;43.094;12.434;2023-01-31T06:15:06;99113.50;;;1.57;100.00
61573;BME280;47465;43.094;12.434;2023-01-31T06:17:34;99100.41;;;1.59;100.00
61573;BME280;47465;43.094;12.434;2023-01-31T06:20:00;99131.41;;;1.91;100.00
61573;BME280;47465;43.094;12.434;2023-01-31T06:22:26;99124.22;;;1.74;100.00
61573;BME280;47465;43.094;12.434;2023-01-31T06:24:52;99127.56;;;1.64;100.00
61573;BME280;47465;43.094;12.434;2023-01-31T06:27:17;99140.56;;;1.58;100.00
61573;BME280;47465;43.094;12.434;2023-01-31T06:29:43;99122.97;;;1.48;100.00
61573;BME280;47465;43.094;12.434;2023-01-31T06:32:09;99143.31;;;1.66;100.00
61573;BME280;47465;43.094;12.434;2023-01-31T06:34:37;99139.09;;;1.74;100.00
61573;BME280;47465;43.094;12.434;2023-01-31T06:37:03;99146.50;;;2.04;100.00
61573;BME280;47465;43.094;12.434;2023-01-31T06:39:28;99153.53;;;2.86;98.15
61573;BME280;47465;43.094;12.434;2023-01-31T06:41:54;99137.81;;;2.89;96.09
61573;BME280;47465;43.094;12.434;2023-01-31T06:44:20;99166.28;;;3.36;94.56
61573;BME280;47465;43.094;12.434;2023-01-31T06:46:46;99145.28;;;3.44;91.95
61573;BME280;47465;43.094;12.434;2023-01-31T06:49:12;99158.44;;;3.47;91.19
61573;BME280;47465;43.094;12.434;2023-01-31T06:51:39;99154.09;;;3.50;89.93
61573;BME280;47465;43.094;12.434;2023-01-31T06:54:05;99168.81;;;3.25;90.53
61573;BME280;47465;43.094;12.434;2023-01-31T06:56:31;99143.78;;;2.74;92.61
61573;BME280;47465;43.094;12.434;2023-01-31T06:58:57;99170.69;;;2.53;94.92
61573;BME280;47465;43.094;12.434;2023-01-31T07:01:23;99198.81;;;2.63;96.86
61573;BME280;47465;43.094;12.434;2023-01-31T07:03:50;99181.06;;;2.41;96.33
61573;BME280;47465;43.094;12.434;2023-01-31T07:06:16;99179.13;;;2.28;98.37
61573;BME280;47465;43.094;12.434;2023-01-31T07:08:46;99181.00;;;2.38;98.79
61573;BME280;47465;43.094;12.434;2023-01-31T07:11:12;99209.44;;;2.74;96.62
61573;BME280;47465;43.094;12.434;2023-01-31T07:13:38;99206.78;;;2.71;96.82
61573;BME280;47465;43.094;12.434;2023-01-31T07:16:04;99190.00;;;2.60;97.25
61573;BME280;47465;43.094;12.434;2023-01-31T07:18:30;99184.78;;;2.58;97.46
61573;BME280;47465;43.094;12.434;2023-01-31T07:20:56;99192.75;;;2.67;98.30
61573;BME280;47465;43.094;12.434;2023-01-31T07:23:22;99182.06;;;2.52;97.91
61573;BME280;47465;43.094;12.434;2023-01-31T07:25:49;99191.88;;;2.67;97.96
61573;BME280;47465;43.094;12.434;2023-01-31T07:28:15;99217.50;;;2.91;98.33
61573;BME280;47465;43.094;12.434;2023-01-31T07:30:41;99197.19;;;2.75;98.19
61573;BME280;47465;43.094;12.434;2023-01-31T07:33:08;99185.00;;;2.81;98.31
61573;BME280;47465;43.094;12.434;2023-01-31T07:35:34;99180.81;;;2.99;95.39
61573;BME280;47465;43.094;12.434;2023-01-31T07:38:00;99195.78;;;3.07;96.27
61573;BME280;47465;43.094;12.434;2023-01-31T07:40:26;99211.66;;;3.17;96.53
61573;BME280;47465;43.094;12.434;2023-01-31T07:42:58;99217.88;;;3.28;96.53
61573;BME280;47465;43.094;12.434;2023-01-31T07:45:24;99213.53;;;3.30;96.59
61573;BME280;47465;43.094;12.434;2023-01-31T07:47:51;99221.50;;;3.39;95.42
61573;BME280;47465;43.094;12.434;2023-01-31T07:50:18;99200.38;;;3.30;94.32
61573;BME280;47465;43.094;12.434;2023-01-31T07:52:45;99204.72;;;3.26;94.74
61573;BME280;47465;43.094;12.434;2023-01-31T07:55:12;99241.69;;;3.46;95.31
61573;BME280;47465;43.094;12.434;2023-01-31T07:57:38;99239.06;;;3.45;95.58
61573;BME280;47465;43.094;12.434;2023-01-31T08:00:10;99215.31;;;3.36;95.24
61573;BME280;47465;43.094;12.434;2023-01-31T08:02:56;99240.03;;;3.58;95.00
61573;BME280;47465;43.094;12.434;2023-01-31T08:05:56;99237.44;;;3.59;94.53
61573;BME280;47465;43.094;12.434;2023-01-31T08:08:22;99238.34;;;3.66;94.71
61573;BME280;47465;43.094;12.434;2023-01-31T08:10:49;99278.03;;;3.90;94.43
61573;BME280;47465;43.094;12.434;2023-01-31T08:13:15;99251.75;;;3.95;93.69
61573;BME280;47465;43.094;12.434;2023-01-31T08:15:41;99250.94;;;4.04;93.12
61573;BME280;47465;43.094;12.434;2023-01-31T08:18:06;99267.75;;;4.26;92.59
61573;BME280;47465;43.094;12.434;2023-01-31T08:20:33;99256.38;;;4.30;92.12
61573;BME280;47465;43.094;12.434;2023-01-31T08:23:00;99274.00;;;4.46;91.31
61573;BME280;47465;43.094;12.434;2023-01-31T08:25:26;99278.44;;;4.60;89.94
61573;BME280;47465;43.094;12.434;2023-01-31T08:27:56;99259.16;;;4.61;88.50
61573;BME280;47465;43.094;12.434;2023-01-31T08:30:21;99275.91;;;4.77;87.37
61573;BME280;47465;43.094;12.434;2023-01-31T08:32:47;99270.66;;;4.80;87.30
61573;BME280;47465;43.094;12.434;2023-01-31T08:35:14;99297.06;;;4.98;86.07
61573;BME280;47465;43.094;12.434;2023-01-31T08:37:40;99296.25;;;5.13;86.50
61573;BME280;47465;43.094;12.434;2023-01-31T08:40:08;99291.91;;;5.27;86.39
61573;BME280;47465;43.094;12.434;2023-01-31T08:42:35;99287.50;;;5.35;85.30
61573;BME280;47465;43.094;12.434;2023-01-31T08:45:01;99277.88;;;5.41;84.96
61573;BME280;47465;43.094;12.434;2023-01-31T08:47:27;99284.03;;;5.55;84.59
61573;BME280;47465;43.094;12.434;2023-01-31T08:49:52;99292.00;;;5.75;84.24
61573;BME280;47465;43.094;12.434;2023-01-31T08:52:18;99304.31;;;5.91;83.72
61573;BME280;47465;43.094;12.434;2023-01-31T08:54:50;99305.22;;;6.01;83.41
61573;BME280;47465;43.094;12.434;2023-01-31T08:57:20;99309.59;;;6.11;81.96
61573;BME280;47465;43.094;12.434;2023-01-31T08:59:46;99287.63;;;6.08;81.93
61573;BME280;47465;43.094;12.434;2023-01-31T09:02:12;99296.41;;;6.25;81.24
61573;BME280;47465;43.094;12.434;2023-01-31T09:04:38;99292.00;;;6.32;80.51
61573;BME280;47465;43.094;12.434;2023-01-31T09:07:04;99316.63;;;6.51;79.50
61573;BME280;47465;43.094;12.434;2023-01-31T09:09:30;99300.81;;;6.35;79.13
61573;BME280;47465;43.094;12.434;2023-01-31T09:11:56;99313.97;;;6.49;78.67
61573;BME280;47465;43.094;12.434;2023-01-31T09:14:24;99307.81;;;6.55;78.27
61573;BME280;47465;43.094;12.434;2023-01-31T09:16:49;99306.91;;;6.67;78.46
61573;BME280;47465;43.094;12.434;2023-01-31T09:19:15;99308.59;;;6.78;77.35
61573;BME280;47465;43.094;12.434;2023-01-31T09:21:41;99313.00;;;6.92;76.69
61573;BME280;47465;43.094;12.434;2023-01-31T09:24:09;99309.53;;;6.68;75.66
61573;BME280;47465;43.094;12.434;2023-01-31T09:26:36;99337.66;;;6.85;77.05
61573;BME280;47465;43.094;12.434;2023-01-31T09:29:02;99335.00;;;6.95;77.31
61573;BME280;47465;43.094;12.434;2023-01-31T09:31:29;99332.31;;;7.09;77.13
61573;BME280;47465;43.094;12.434;2023-01-31T09:33:55;99354.25;;;7.30;76.73
61573;BME280;47465;43.094;12.434;2023-01-31T09:36:22;99352.47;;;7.36;76.23
61573;BME280;47465;43.094;12.434;2023-01-31T09:38:52;99333.09;;;7.30;75.42
61573;BME280;47465;43.094;12.434;2023-01-31T09:41:24;99343.59;;;7.48;74.83
61573;BME280;47465;43.094;12.434;2023-01-31T09:43:54;99340.00;;;7.60;74.29
61573;BME280;47465;43.094;12.434;2023-01-31T09:46:25;99364.53;;;7.87;74.15
61573;BME280;47465;43.094;12.434;2023-01-31T09:48:55;99356.53;;;7.94;73.72
61573;BME280;47465;43.094;12.434;2023-01-31T09:51:22;99363.50;;;8.08;72.89
61573;BME280;47465;43.094;12.434;2023-01-31T09:53:54;99342.41;;;7.98;70.35
61573;BME280;47465;43.094;12.434;2023-01-31T09:56:32;99359.00;;;8.20;70.54
61573;BME280;47465;43.094;12.434;2023-01-31T09:59:06;99376.50;;;8.40;67.37
61573;BME280;47465;43.094;12.434;2023-01-31T10:01:41;99340.16;;;8.56;59.27
61573;BME280;47465;43.094;12.434;2023-01-31T10:04:32;99360.13;;;8.91;54.50
61573;BME280;47465;43.094;12.434;2023-01-31T10:07:08;99372.00;;;9.35;51.67
61573;BME280;47465;43.094;12.434;2023-01-31T10:09:37;99355.19;;;9.34;51.00
61573;BME280;47465;43.094;12.434;2023-01-31T10:12:10;99380.47;;;9.64;49.99
61573;BME280;47465;43.094;12.434;2023-01-31T10:14:41;99353.97;;;9.58;49.50
61573;BME280;47465;43.094;12.434;2023-01-31T10:17:18;99362.13;;;9.46;49.52
61573;BME280;47465;43.094;12.434;2023-01-31T10:19:51;99338.31;;;9.38;46.59
61573;BME280;47465;43.094;12.434;2023-01-31T10:22:25;99360.13;;;9.63;45.66
61573;BME280;47465;43.094;12.434;2023-01-31T10:24:55;99364.28;;;9.83;44.41
61573;BME280;47465;43.094;12.434;2023-01-31T10:27:34;99346.38;;;9.96;42.80
61573;BME280;47465;43.094;12.434;2023-01-31T10:30:03;99340.03;;;10.04;39.75
61573;BME280;47465;43.094;12.434;2023-01-31T10:32:35;99319.88;;;9.91;40.18
61573;BME280;47465;43.094;12.434;2023-01-31T10:35:11;99317.25;;;9.88;41.12
61573;BME280;47465;43.094;12.434;2023-01-31T10:37:42;99327.84;;;9.91;40.36
61573;BME280;47465;43.094;12.434;2023-01-31T10:40:13;99327.72;;;9.99;40.86
61573;BME280;47465;43.094;12.434;2023-01-31T10:42:41;99312.69;;;9.98;41.00
61573;BME280;47465;43.094;12.434;2023-01-31T10:45:15;99316.97;;;10.06;41.20
61573;BME280;47465;43.094;12.434;2023-01-31T10:47:47;99313.66;;;9.92;40.57
61573;BME280;47465;43.094;12.434;2023-01-31T10:50:17;99315.38;;;9.96;40.46
61573;BME280;47465;43.094;12.434;2023-01-31T10:53:03;99311.09;;;9.84;40.72
61573;BME280;47465;43.094;12.434;2023-01-31T10:55:54;99322.25;;;10.10;40.65
61573;BME280;47465;43.094;12.434;2023-01-31T10:58:24;99308.28;;;9.97;40.96
61573;BME280;47465;43.094;12.434;2023-01-31T11:00:50;99304.13;;;9.80;39.82
61573;BME280;47465;43.094;12.434;2023-01-31T11:03:16;99290.13;;;9.68;38.04
61573;BME280;47465;43.094;12.434;2023-01-31T11:05:47;99304.13;;;9.80;38.53
61573;BME280;47465;43.094;12.434;2023-01-31T11:08:24;99289.91;;;9.81;38.70
61573;BME280;47465;43.094;12.434;2023-01-31T11:10:52;99306.38;;;10.03;36.92
61573;BME280;47465;43.094;12.434;2023-01-31T11:13:19;99266.88;;;9.83;37.44
61573;BME280;47465;43.094;12.434;2023-01-31T11:15:45;99289.66;;;9.97;37.72
61573;BME280;47465;43.094;12.434;2023-01-31T11:18:14;99266.09;;;9.77;37.37
61573;BME280;47465;43.094;12.434;2023-01-31T11:20:49;99290.59;;;9.96;36.22
61573;BME280;47465;43.094;12.434;2023-01-31T11:23:24;99274.69;;;9.93;36.47
61573;BME280;47465;43.094;12.434;2023-01-31T11:25:53;99283.44;;;9.99;35.89
61573;BME280;47465;43.094;12.434;2023-01-31T11:28:21;99268.44;;;9.95;34.67
61573;BME280;47465;43.094;12.434;2023-01-31T11:30:49;99297.38;;;10.12;34.47
61573;BME280;47465;43.094;12.434;2023-01-31T11:33:38;99292.25;;;10.01;34.68
61573;BME280;47465;43.094;12.434;2023-01-31T11:36:11;99268.69;;;9.80;35.15
61573;BME280;47465;43.094;12.434;2023-01-31T11:38:37;99275.84;;;9.75;37.26
61573;BME280;47465;43.094;12.434;2023-01-31T11:41:26;99263.44;;;9.75;37.33
61573;BME280;47465;43.094;12.434;2023-01-31T11:44:11;99257.19;;;9.79;36.13
61573;BME280;47465;43.094;12.434;2023-01-31T11:46:42;99253.69;;;9.77;36.93
61573;BME280;47465;43.094;12.434;2023-01-31T11:49:11;99277.13;;;10.06;34.25
61573;BME280;47465;43.094;12.434;2023-01-31T11:51:39;99267.34;;;10.08;34.07
61573;BME280;47465;43.094;12.434;2023-01-31T11:54:06;99276.78;;;10.26;35.25
61573;BME280;47465;43.094;12.434;2023-01-31T11:56:34;99239.94;;;10.05;33.82
61573;BME280;47465;43.094;12.434;2023-01-31T11:59:04;99258.47;;;10.10;33.98
61573;BME280;47465;43.094;12.434;2023-01-31T12:01:34;99255.69;;;10.16;34.52
61573;BME280;47465;43.094;12.434;2023-01-31T12:04:02;99270.69;;;10.20;35.32
61573;BME280;47465;43.094;12.434;2023-01-31T12:06:31;99241.47;;;10.20;35.07
61573;BME280;47465;43.094;12.434;2023-01-31T12:09:00;99255.53;;;10.25;33.68
61573;BME280;47465;43.094;12.434;2023-01-31T12:11:28;99272.91;;;10.46;34.00
61573;BME280;47465;43.094;12.434;2023-01-31T12:14:01;99276.63;;;10.37;33.88
61573;BME280;47465;43.094;12.434;2023-01-31T12:16:33;99279.22;;;10.40;35.33
61573;BME280;47465;43.094;12.434;2023-01-31T12:19:13;99265.97;;;10.39;33.67
61573;BME280;47465;43.094;12.434;2023-01-31T12:21:50;99253.91;;;10.18;33.38
61573;BME280;47465;43.094;12.434;2023-01-31T12:24:27;99254.94;;;10.09;33.67
61573;BME280;47465;43.094;12.434;2023-01-31T12:27:02;99248.03;;;9.97;33.81
61573;BME280;47465;43.094;12.434;2023-01-31T12:29:49;99242.66;;;10.02;33.76
61573;BME280;47465;43.094;12.434;2023-01-31T12:32:34;99253.25;;;10.03;34.55
61573;BME280;47465;43.094;12.434;2023-01-31T12:35:25;99258.59;;;10.02;34.36
61573;BME280;47465;43.094;12.434;2023-01-31T12:38:00;99242.84;;;9.91;34.03
61573;BME280;47465;43.094;12.434;2023-01-31T12:40:36;99241.81;;;10.00;34.28
61573;BME280;47465;43.094;12.434;2023-01-31T12:43:13;99247.91;;;10.06;34.83
61573;BME280;47465;43.094;12.434;2023-01-31T12:46:00;99248.56;;;10.19;34.40
61573;BME280;47465;43.094;12.434;2023-01-31T12:51:41;99251.13;;;10.24;35.08
61573;BME280;47465;43.094;12.434;2023-01-31T12:54:23;99265.16;;;10.32;34.85
61573;BME280;47465;43.094;12.434;2023-01-31T12:57:11;99260.78;;;10.31;33.84
61573;BME280;47465;43.094;12.434;2023-01-31T12:59:45;99251.88;;;10.32;34.77
61573;BME280;47465;43.094;12.434;2023-01-31T13:02:29;99248.38;;;10.28;34.41
61573;BME280;47465;43.094;12.434;2023-01-31T13:05:02;99252.72;;;10.34;34.84
61573;BME280;47465;43.094;12.434;2023-01-31T13:07:56;99228.16;;;10.21;34.15
61573;BME280;47465;43.094;12.434;2023-01-31T13:11:05;99242.91;;;10.39;34.08
61573;BME280;47465;43.094;12.434;2023-01-31T13:13:44;99255.13;;;10.50;34.42
61573;BME280;47465;43.094;12.434;2023-01-31T13:16:15;99240.13;;;10.45;33.53
61573;BME280;47465;43.094;12.434;2023-01-31T13:18:45;99227.94;;;10.32;33.49
61573;BME280;47465;43.094;12.434;2023-01-31T13:21:14;99235.81;;;10.38;32.93